sensor_id;sensor_type;location;lat;lon;timestamp;P1;durP1;ratioP1;P2;durP2;ratioP2
20181;SDS011;10250;50.756;6.172;2022-07-30T00:01:40;13.07;;;2.93;;
20181;SDS011;10250;50.756;6.172;2022-07-30T00:03:41;7.40;;;2.33;;
20181;SDS011;10250;50.756;6.172;2022-07-30T00:05:42;7.87;;;2.50;;
20181;SDS011;10250;50.756;6.172;2022-07-30T00:07:42;8.93;;;2.40;;
20181;SDS011;10250;50.756;6.172;2022-07-30T00:09:43;10.37;;;2.90;;
20181;SDS011;10250;50.756;6.172;2022-07-30T00:11:43;8.87;;;2.77;;
20181;SDS011;10250;50.756;6.172;2022-07-30T00:13:44;8.13;;;2.47;;
20181;SDS011;10250;50.756;6.172;2022-07-30T00:15:44;7.13;;;2.30;;
20181;SDS011;10250;50.756;6.172;2022-07-30T00:17:45;9.50;;;2.80;;
20181;SDS011;10250;50.756;6.172;2022-07-30T00:19:46;8.53;;;2.40;;
20181;SDS011;10250;50.756;6.172;2022-07-30T00:21:46;8.00;;;2.30;;
20181;SDS011;10250;50.756;6.172;2022-07-30T00:23:47;14.40;;;2.47;;
20181;SDS011;10250;50.756;6.172;2022-07-30T00:25:47;8.17;;;2.50;;
20181;SDS011;10250;50.756;6.172;2022-07-30T00:27:48;7.33;;;2.30;;
20181;SDS011;10250;50.756;6.172;2022-07-30T00:29:49;9.53;;;2.57;;
20181;SDS011;10250;50.756;6.172;2022-07-30T00:31:49;10.20;;;2.83;;
20181;SDS011;10250;50.756;6.172;2022-07-30T00:33:50;7.63;;;2.23;;
20181;SDS011;10250;50.756;6.172;2022-07-30T00:35:51;8.40;;;2.60;;
20181;SDS011;10250;50.756;6.172;2022-07-30T00:37:51;10.27;;;2.73;;
20181;SDS011;10250;50.756;6.172;2022-07-30T00:39:52;6.97;;;2.47;;
20181;SDS011;10250;50.756;6.172;2022-07-30T00:41:57;10.07;;;2.60;;
20181;SDS011;10250;50.756;6.172;2022-07-30T00:43:59;6.73;;;2.30;;
20181;SDS011;10250;50.756;6.172;2022-07-30T00:46:00;6.47;;;2.10;;
20181;SDS011;10250;50.756;6.172;2022-07-30T00:48:00;7.63;;;2.17;;
20181;SDS011;10250;50.756;6.172;2022-07-30T00:50:01;8.03;;;2.50;;
20181;SDS011;10250;50.756;6.172;2022-07-30T00:52:03;9.40;;;2.77;;
20181;SDS011;10250;50.756;6.172;2022-07-30T00:54:04;9.43;;;2.90;;
20181;SDS011;10250;50.756;6.172;2022-07-30T00:56:04;10.00;;;2.83;;
20181;SDS011;10250;50.756;6.172;2022-07-30T00:58:06;7.73;;;2.57;;
20181;SDS011;10250;50.756;6.172;2022-07-30T01:00:07;9.80;;;2.67;;
20181;SDS011;10250;50.756;6.172;2022-07-30T01:02:11;9.57;;;2.70;;
20181;SDS011;10250;50.756;6.172;2022-07-30T01:04:12;11.37;;;2.93;;
20181;SDS011;10250;50.756;6.172;2022-07-30T01:06:12;9.40;;;2.67;;
20181;SDS011;10250;50.756;6.172;2022-07-30T01:08:13;9.57;;;2.80;;
20181;SDS011;10250;50.756;6.172;2022-07-30T01:10:14;8.77;;;2.67;;
20181;SDS011;10250;50.756;6.172;2022-07-30T01:12:16;8.83;;;2.60;;
20181;SDS011;10250;50.756;6.172;2022-07-30T01:14:19;9.17;;;3.00;;
20181;SDS011;10250;50.756;6.172;2022-07-30T01:16:20;9.37;;;3.10;;
20181;SDS011;10250;50.756;6.172;2022-07-30T01:18:21;10.50;;;3.10;;
20181;SDS011;10250;50.756;6.172;2022-07-30T01:20:47;9.03;;;3.00;;
20181;SDS011;10250;50.756;6.172;2022-07-30T01:23:12;10.43;;;2.77;;
20181;SDS011;10250;50.756;6.172;2022-07-30T01:28:01;10.93;;;3.33;;
20181;SDS011;10250;50.756;6.172;2022-07-30T01:30:07;8.03;;;2.37;;
20181;SDS011;10250;50.756;6.172;2022-07-30T01:32:09;10.80;;;3.10;;
20181;SDS011;10250;50.756;6.172;2022-07-30T01:34:12;10.23;;;2.97;;
20181;SDS011;10250;50.756;6.172;2022-07-30T01:36:15;8.93;;;2.70;;
20181;SDS011;10250;50.756;6.172;2022-07-30T01:38:21;9.90;;;3.00;;
20181;SDS011;10250;50.756;6.172;2022-07-30T01:40:23;11.37;;;3.20;;
20181;SDS011;10250;50.756;6.172;2022-07-30T01:42:26;11.93;;;3.30;;
20181;SDS011;10250;50.756;6.172;2022-07-30T01:44:28;10.60;;;2.83;;
20181;SDS011;10250;50.756;6.172;2022-07-30T01:46:29;12.77;;;3.20;;
20181;SDS011;10250;50.756;6.172;2022-07-30T01:48:30;11.97;;;3.27;;
20181;SDS011;10250;50.756;6.172;2022-07-30T01:50:34;9.90;;;3.10;;
20181;SDS011;10250;50.756;6.172;2022-07-30T01:52:35;9.77;;;3.07;;
20181;SDS011;10250;50.756;6.172;2022-07-30T01:54:37;10.23;;;2.73;;
20181;SDS011;10250;50.756;6.172;2022-07-30T01:56:38;11.43;;;3.30;;
20181;SDS011;10250;50.756;6.172;2022-07-30T01:58:41;10.17;;;3.13;;
20181;SDS011;10250;50.756;6.172;2022-07-30T02:00:42;9.30;;;2.87;;
20181;SDS011;10250;50.756;6.172;2022-07-30T02:02:45;9.73;;;2.80;;
20181;SDS011;10250;50.756;6.172;2022-07-30T02:04:45;11.13;;;3.17;;
20181;SDS011;10250;50.756;6.172;2022-07-30T02:06:51;10.83;;;3.40;;
20181;SDS011;10250;50.756;6.172;2022-07-30T02:09:00;11.73;;;3.03;;
20181;SDS011;10250;50.756;6.172;2022-07-30T02:11:05;11.57;;;3.57;;
20181;SDS011;10250;50.756;6.172;2022-07-30T02:13:21;9.33;;;2.97;;
20181;SDS011;10250;50.756;6.172;2022-07-30T02:15:30;10.37;;;3.33;;
20181;SDS011;10250;50.756;6.172;2022-07-30T02:17:38;12.07;;;3.57;;
20181;SDS011;10250;50.756;6.172;2022-07-30T02:19:42;12.80;;;3.63;;
20181;SDS011;10250;50.756;6.172;2022-07-30T02:21:55;11.27;;;3.37;;
20181;SDS011;10250;50.756;6.172;2022-07-30T02:24:04;11.50;;;3.50;;
20181;SDS011;10250;50.756;6.172;2022-07-30T02:26:08;11.20;;;3.37;;
20181;SDS011;10250;50.756;6.172;2022-07-30T02:28:12;13.50;;;3.70;;
20181;SDS011;10250;50.756;6.172;2022-07-30T02:30:14;11.67;;;3.47;;
20181;SDS011;10250;50.756;6.172;2022-07-30T02:32:17;12.27;;;3.90;;
20181;SDS011;10250;50.756;6.172;2022-07-30T02:34:20;11.70;;;3.83;;
20181;SDS011;10250;50.756;6.172;2022-07-30T02:36:22;11.60;;;3.93;;
20181;SDS011;10250;50.756;6.172;2022-07-30T02:38:25;11.63;;;3.73;;
20181;SDS011;10250;50.756;6.172;2022-07-30T02:40:27;9.77;;;3.30;;
20181;SDS011;10250;50.756;6.172;2022-07-30T02:42:28;12.07;;;3.73;;
20181;SDS011;10250;50.756;6.172;2022-07-30T02:44:30;12.87;;;3.83;;
20181;SDS011;10250;50.756;6.172;2022-07-30T02:46:32;12.50;;;3.93;;
20181;SDS011;10250;50.756;6.172;2022-07-30T02:48:35;11.60;;;3.80;;
20181;SDS011;10250;50.756;6.172;2022-07-30T02:50:38;9.87;;;3.40;;
20181;SDS011;10250;50.756;6.172;2022-07-30T02:52:40;10.77;;;3.33;;
20181;SDS011;10250;50.756;6.172;2022-07-30T02:54:42;10.87;;;3.53;;
20181;SDS011;10250;50.756;6.172;2022-07-30T02:56:45;11.80;;;3.57;;
20181;SDS011;10250;50.756;6.172;2022-07-30T02:58:48;12.27;;;3.50;;
20181;SDS011;10250;50.756;6.172;2022-07-30T03:00:51;10.27;;;3.57;;
20181;SDS011;10250;50.756;6.172;2022-07-30T03:02:53;11.53;;;3.47;;
20181;SDS011;10250;50.756;6.172;2022-07-30T03:04:56;12.80;;;4.17;;
20181;SDS011;10250;50.756;6.172;2022-07-30T03:06:59;13.00;;;4.20;;
20181;SDS011;10250;50.756;6.172;2022-07-30T03:09:01;12.27;;;4.00;;
20181;SDS011;10250;50.756;6.172;2022-07-30T03:11:03;12.87;;;4.17;;
20181;SDS011;10250;50.756;6.172;2022-07-30T03:13:04;11.43;;;3.63;;
20181;SDS011;10250;50.756;6.172;2022-07-30T03:15:06;11.60;;;3.70;;
20181;SDS011;10250;50.756;6.172;2022-07-30T03:17:07;13.07;;;3.90;;
20181;SDS011;10250;50.756;6.172;2022-07-30T03:19:09;11.80;;;3.87;;
20181;SDS011;10250;50.756;6.172;2022-07-30T03:21:11;12.20;;;3.87;;
20181;SDS011;10250;50.756;6.172;2022-07-30T03:23:12;12.03;;;4.00;;
20181;SDS011;10250;50.756;6.172;2022-07-30T03:25:20;11.43;;;3.63;;
20181;SDS011;10250;50.756;6.172;2022-07-30T03:27:23;12.90;;;3.97;;
20181;SDS011;10250;50.756;6.172;2022-07-30T03:29:25;11.97;;;3.83;;
20181;SDS011;10250;50.756;6.172;2022-07-30T03:31:27;12.07;;;4.17;;
20181;SDS011;10250;50.756;6.172;2022-07-30T03:33:29;11.60;;;3.67;;
20181;SDS011;10250;50.756;6.172;2022-07-30T03:35:31;12.50;;;3.87;;
20181;SDS011;10250;50.756;6.172;2022-07-30T03:37:32;14.20;;;4.07;;
20181;SDS011;10250;50.756;6.172;2022-07-30T03:39:35;11.77;;;3.50;;
20181;SDS011;10250;50.756;6.172;2022-07-30T03:41:37;12.17;;;3.90;;
20181;SDS011;10250;50.756;6.172;2022-07-30T03:43:39;13.70;;;3.90;;
20181;SDS011;10250;50.756;6.172;2022-07-30T03:45:41;12.73;;;4.23;;
20181;SDS011;10250;50.756;6.172;2022-07-30T03:47:44;13.27;;;3.77;;
20181;SDS011;10250;50.756;6.172;2022-07-30T03:49:45;11.13;;;4.00;;
20181;SDS011;10250;50.756;6.172;2022-07-30T03:51:46;15.00;;;4.60;;
20181;SDS011;10250;50.756;6.172;2022-07-30T03:53:48;10.70;;;3.70;;
20181;SDS011;10250;50.756;6.172;2022-07-30T03:55:51;11.53;;;4.30;;
20181;SDS011;10250;50.756;6.172;2022-07-30T03:57:52;13.77;;;4.20;;
20181;SDS011;10250;50.756;6.172;2022-07-30T03:59:53;15.20;;;4.37;;
20181;SDS011;10250;50.756;6.172;2022-07-30T04:01:53;12.90;;;4.03;;
20181;SDS011;10250;50.756;6.172;2022-07-30T04:04:03;15.80;;;4.50;;
20181;SDS011;10250;50.756;6.172;2022-07-30T04:06:08;11.93;;;3.83;;
20181;SDS011;10250;50.756;6.172;2022-07-30T04:08:08;13.27;;;4.43;;
20181;SDS011;10250;50.756;6.172;2022-07-30T04:10:09;11.83;;;3.67;;
20181;SDS011;10250;50.756;6.172;2022-07-30T04:12:10;12.77;;;3.93;;
20181;SDS011;10250;50.756;6.172;2022-07-30T04:14:12;12.40;;;3.87;;
20181;SDS011;10250;50.756;6.172;2022-07-30T04:16:15;12.10;;;4.03;;
20181;SDS011;10250;50.756;6.172;2022-07-30T04:18:22;13.03;;;4.10;;
20181;SDS011;10250;50.756;6.172;2022-07-30T04:20:26;13.60;;;4.60;;
20181;SDS011;10250;50.756;6.172;2022-07-30T04:22:33;11.70;;;4.20;;
20181;SDS011;10250;50.756;6.172;2022-07-30T04:24:35;13.67;;;4.20;;
20181;SDS011;10250;50.756;6.172;2022-07-30T04:26:37;12.93;;;4.40;;
20181;SDS011;10250;50.756;6.172;2022-07-30T04:28:38;11.90;;;3.80;;
20181;SDS011;10250;50.756;6.172;2022-07-30T04:30:39;13.93;;;4.43;;
20181;SDS011;10250;50.756;6.172;2022-07-30T04:32:40;12.50;;;4.37;;
20181;SDS011;10250;50.756;6.172;2022-07-30T04:34:45;13.93;;;4.67;;
20181;SDS011;10250;50.756;6.172;2022-07-30T04:36:50;12.97;;;4.33;;
20181;SDS011;10250;50.756;6.172;2022-07-30T04:38:50;12.80;;;4.33;;
20181;SDS011;10250;50.756;6.172;2022-07-30T04:40:51;11.47;;;3.73;;
20181;SDS011;10250;50.756;6.172;2022-07-30T04:42:52;14.97;;;4.90;;
20181;SDS011;10250;50.756;6.172;2022-07-30T04:44:52;12.97;;;4.37;;
20181;SDS011;10250;50.756;6.172;2022-07-30T04:46:54;11.80;;;3.87;;
20181;SDS011;10250;50.756;6.172;2022-07-30T04:48:54;11.53;;;4.00;;
20181;SDS011;10250;50.756;6.172;2022-07-30T04:50:56;12.73;;;3.90;;
20181;SDS011;10250;50.756;6.172;2022-07-30T04:53:00;13.17;;;3.70;;
20181;SDS011;10250;50.756;6.172;2022-07-30T04:55:03;12.63;;;4.10;;
20181;SDS011;10250;50.756;6.172;2022-07-30T04:57:06;12.63;;;4.27;;
20181;SDS011;10250;50.756;6.172;2022-07-30T04:59:09;12.80;;;3.90;;
20181;SDS011;10250;50.756;6.172;2022-07-30T05:01:10;14.27;;;3.90;;
20181;SDS011;10250;50.756;6.172;2022-07-30T05:03:14;13.53;;;4.40;;
20181;SDS011;10250;50.756;6.172;2022-07-30T05:05:16;13.60;;;4.50;;
20181;SDS011;10250;50.756;6.172;2022-07-30T05:07:18;12.17;;;4.10;;
20181;SDS011;10250;50.756;6.172;2022-07-30T05:09:20;14.70;;;4.20;;
20181;SDS011;10250;50.756;6.172;2022-07-30T05:11:21;17.23;;;5.10;;
20181;SDS011;10250;50.756;6.172;2022-07-30T05:13:22;15.00;;;4.80;;
20181;SDS011;10250;50.756;6.172;2022-07-30T05:15:23;15.33;;;5.00;;
20181;SDS011;10250;50.756;6.172;2022-07-30T05:17:23;14.03;;;4.63;;
20181;SDS011;10250;50.756;6.172;2022-07-30T05:19:24;17.27;;;5.37;;
20181;SDS011;10250;50.756;6.172;2022-07-30T05:21:25;18.40;;;5.03;;
20181;SDS011;10250;50.756;6.172;2022-07-30T05:23:25;16.37;;;5.50;;
20181;SDS011;10250;50.756;6.172;2022-07-30T05:25:26;17.67;;;5.63;;
20181;SDS011;10250;50.756;6.172;2022-07-30T05:27:27;18.43;;;6.70;;
20181;SDS011;10250;50.756;6.172;2022-07-30T05:29:27;16.30;;;5.57;;
20181;SDS011;10250;50.756;6.172;2022-07-30T05:31:28;19.40;;;6.27;;
20181;SDS011;10250;50.756;6.172;2022-07-30T05:33:28;17.77;;;5.33;;
20181;SDS011;10250;50.756;6.172;2022-07-30T05:35:29;15.57;;;5.30;;
20181;SDS011;10250;50.756;6.172;2022-07-30T05:37:29;20.17;;;5.97;;
20181;SDS011;10250;50.756;6.172;2022-07-30T05:39:32;18.57;;;6.23;;
20181;SDS011;10250;50.756;6.172;2022-07-30T05:41:33;18.00;;;5.83;;
20181;SDS011;10250;50.756;6.172;2022-07-30T05:43:33;17.37;;;6.20;;
20181;SDS011;10250;50.756;6.172;2022-07-30T05:45:34;16.97;;;5.90;;
20181;SDS011;10250;50.756;6.172;2022-07-30T05:47:35;19.40;;;7.17;;
20181;SDS011;10250;50.756;6.172;2022-07-30T05:49:36;21.07;;;6.30;;
20181;SDS011;10250;50.756;6.172;2022-07-30T05:51:37;21.80;;;6.60;;
20181;SDS011;10250;50.756;6.172;2022-07-30T05:53:38;19.03;;;6.43;;
20181;SDS011;10250;50.756;6.172;2022-07-30T05:55:38;18.00;;;6.00;;
20181;SDS011;10250;50.756;6.172;2022-07-30T05:57:39;20.07;;;6.57;;
20181;SDS011;10250;50.756;6.172;2022-07-30T05:59:42;19.23;;;6.80;;
20181;SDS011;10250;50.756;6.172;2022-07-30T06:01:43;20.03;;;6.80;;
20181;SDS011;10250;50.756;6.172;2022-07-30T06:03:43;18.53;;;7.10;;
20181;SDS011;10250;50.756;6.172;2022-07-30T06:05:44;19.20;;;6.27;;
20181;SDS011;10250;50.756;6.172;2022-07-30T06:07:44;16.90;;;5.67;;
20181;SDS011;10250;50.756;6.172;2022-07-30T06:09:45;18.87;;;6.63;;
20181;SDS011;10250;50.756;6.172;2022-07-30T06:11:46;19.80;;;6.53;;
20181;SDS011;10250;50.756;6.172;2022-07-30T06:13:46;17.93;;;6.53;;
20181;SDS011;10250;50.756;6.172;2022-07-30T06:15:47;18.57;;;6.33;;
20181;SDS011;10250;50.756;6.172;2022-07-30T06:17:47;19.17;;;5.97;;
20181;SDS011;10250;50.756;6.172;2022-07-30T06:19:48;19.33;;;6.77;;
20181;SDS011;10250;50.756;6.172;2022-07-30T06:21:49;17.57;;;6.03;;
20181;SDS011;10250;50.756;6.172;2022-07-30T06:23:50;19.17;;;6.37;;
20181;SDS011;10250;50.756;6.172;2022-07-30T06:25:51;20.83;;;6.87;;
20181;SDS011;10250;50.756;6.172;2022-07-30T06:27:51;20.10;;;6.43;;
20181;SDS011;10250;50.756;6.172;2022-07-30T06:29:52;20.97;;;7.20;;
20181;SDS011;10250;50.756;6.172;2022-07-30T06:31:53;19.63;;;7.13;;
20181;SDS011;10250;50.756;6.172;2022-07-30T06:33:53;18.60;;;7.00;;
20181;SDS011;10250;50.756;6.172;2022-07-30T06:35:54;22.57;;;6.87;;
20181;SDS011;10250;50.756;6.172;2022-07-30T06:37:54;18.23;;;6.20;;
20181;SDS011;10250;50.756;6.172;2022-07-30T06:39:55;18.57;;;6.57;;
20181;SDS011;10250;50.756;6.172;2022-07-30T06:41:55;19.13;;;6.27;;
20181;SDS011;10250;50.756;6.172;2022-07-30T06:43:56;17.83;;;5.63;;
20181;SDS011;10250;50.756;6.172;2022-07-30T06:45:57;18.80;;;6.07;;
20181;SDS011;10250;50.756;6.172;2022-07-30T06:47:58;17.43;;;5.13;;
20181;SDS011;10250;50.756;6.172;2022-07-30T06:49:59;18.27;;;6.47;;
20181;SDS011;10250;50.756;6.172;2022-07-30T06:52:02;20.27;;;6.50;;
20181;SDS011;10250;50.756;6.172;2022-07-30T06:54:03;23.00;;;6.67;;
20181;SDS011;10250;50.756;6.172;2022-07-30T06:56:04;17.77;;;5.90;;
20181;SDS011;10250;50.756;6.172;2022-07-30T06:58:04;20.47;;;6.83;;
20181;SDS011;10250;50.756;6.172;2022-07-30T07:00:05;19.33;;;7.00;;
20181;SDS011;10250;50.756;6.172;2022-07-30T07:02:07;18.80;;;6.77;;
20181;SDS011;10250;50.756;6.172;2022-07-30T07:04:07;20.03;;;7.33;;
20181;SDS011;10250;50.756;6.172;2022-07-30T07:06:08;21.50;;;6.97;;
20181;SDS011;10250;50.756;6.172;2022-07-30T07:08:09;19.50;;;6.87;;
20181;SDS011;10250;50.756;6.172;2022-07-30T07:10:09;19.40;;;7.50;;
20181;SDS011;10250;50.756;6.172;2022-07-30T07:12:10;20.23;;;7.30;;
20181;SDS011;10250;50.756;6.172;2022-07-30T07:14:11;20.53;;;6.93;;
20181;SDS011;10250;50.756;6.172;2022-07-30T07:16:11;19.37;;;7.03;;
20181;SDS011;10250;50.756;6.172;2022-07-30T07:18:12;22.43;;;7.60;;
20181;SDS011;10250;50.756;6.172;2022-07-30T07:20:14;22.53;;;7.70;;
20181;SDS011;10250;50.756;6.172;2022-07-30T07:22:14;23.17;;;7.77;;
20181;SDS011;10250;50.756;6.172;2022-07-30T07:24:15;22.30;;;7.63;;
20181;SDS011;10250;50.756;6.172;2022-07-30T07:26:16;20.70;;;7.20;;
20181;SDS011;10250;50.756;6.172;2022-07-30T07:28:16;21.50;;;7.67;;
20181;SDS011;10250;50.756;6.172;2022-07-30T07:30:17;22.00;;;7.60;;
20181;SDS011;10250;50.756;6.172;2022-07-30T07:32:18;25.30;;;7.97;;
20181;SDS011;10250;50.756;6.172;2022-07-30T07:34:19;23.07;;;7.40;;
20181;SDS011;10250;50.756;6.172;2022-07-30T07:36:20;21.73;;;7.73;;
20181;SDS011;10250;50.756;6.172;2022-07-30T07:38:21;22.57;;;7.60;;
20181;SDS011;10250;50.756;6.172;2022-07-30T07:40:21;20.27;;;7.73;;
20181;SDS011;10250;50.756;6.172;2022-07-30T07:42:22;26.43;;;7.43;;
20181;SDS011;10250;50.756;6.172;2022-07-30T07:44:22;20.20;;;7.23;;
20181;SDS011;10250;50.756;6.172;2022-07-30T07:46:23;19.43;;;7.23;;
20181;SDS011;10250;50.756;6.172;2022-07-30T07:48:23;19.30;;;6.97;;
20181;SDS011;10250;50.756;6.172;2022-07-30T07:50:24;20.17;;;6.43;;
20181;SDS011;10250;50.756;6.172;2022-07-30T07:52:25;18.23;;;5.90;;
20181;SDS011;10250;50.756;6.172;2022-07-30T07:54:25;16.83;;;5.83;;
20181;SDS011;10250;50.756;6.172;2022-07-30T07:56:26;16.87;;;6.03;;
20181;SDS011;10250;50.756;6.172;2022-07-30T07:58:26;18.87;;;6.73;;
20181;SDS011;10250;50.756;6.172;2022-07-30T08:00:27;19.57;;;7.33;;
20181;SDS011;10250;50.756;6.172;2022-07-30T08:02:28;19.17;;;6.70;;
20181;SDS011;10250;50.756;6.172;2022-07-30T08:04:29;18.87;;;6.10;;
20181;SDS011;10250;50.756;6.172;2022-07-30T08:06:29;20.60;;;7.23;;
20181;SDS011;10250;50.756;6.172;2022-07-30T08:08:30;18.97;;;6.53;;
20181;SDS011;10250;50.756;6.172;2022-07-30T08:10:30;18.50;;;6.67;;
20181;SDS011;10250;50.756;6.172;2022-07-30T08:12:31;18.20;;;5.70;;
20181;SDS011;10250;50.756;6.172;2022-07-30T08:14:32;18.50;;;6.10;;
20181;SDS011;10250;50.756;6.172;2022-07-30T08:16:32;16.83;;;6.03;;
20181;SDS011;10250;50.756;6.172;2022-07-30T08:18:34;17.17;;;6.00;;
20181;SDS011;10250;50.756;6.172;2022-07-30T08:20:35;17.63;;;6.30;;
20181;SDS011;10250;50.756;6.172;2022-07-30T08:22:38;21.17;;;7.00;;
20181;SDS011;10250;50.756;6.172;2022-07-30T08:24:40;18.23;;;5.57;;
20181;SDS011;10250;50.756;6.172;2022-07-30T08:26:40;19.83;;;5.70;;
20181;SDS011;10250;50.756;6.172;2022-07-30T08:28:41;16.90;;;4.93;;
20181;SDS011;10250;50.756;6.172;2022-07-30T08:30:44;15.97;;;5.00;;
20181;SDS011;10250;50.756;6.172;2022-07-30T08:32:46;20.07;;;5.90;;
20181;SDS011;10250;50.756;6.172;2022-07-30T08:34:49;17.50;;;5.23;;
20181;SDS011;10250;50.756;6.172;2022-07-30T08:36:50;18.47;;;5.00;;
20181;SDS011;10250;50.756;6.172;2022-07-30T08:38:50;18.03;;;5.70;;
20181;SDS011;10250;50.756;6.172;2022-07-30T08:40:53;16.47;;;5.17;;
20181;SDS011;10250;50.756;6.172;2022-07-30T08:42:55;15.33;;;4.83;;
20181;SDS011;10250;50.756;6.172;2022-07-30T08:44:56;15.00;;;4.60;;
20181;SDS011;10250;50.756;6.172;2022-07-30T08:46:57;15.47;;;5.13;;
20181;SDS011;10250;50.756;6.172;2022-07-30T08:48:58;15.90;;;4.97;;
20181;SDS011;10250;50.756;6.172;2022-07-30T08:50:59;17.30;;;5.10;;
20181;SDS011;10250;50.756;6.172;2022-07-30T08:53:01;16.60;;;4.50;;
20181;SDS011;10250;50.756;6.172;2022-07-30T08:55:05;14.93;;;4.53;;
20181;SDS011;10250;50.756;6.172;2022-07-30T08:57:06;16.50;;;4.87;;
20181;SDS011;10250;50.756;6.172;2022-07-30T08:59:07;14.83;;;4.47;;
20181;SDS011;10250;50.756;6.172;2022-07-30T09:01:08;14.27;;;4.57;;
20181;SDS011;10250;50.756;6.172;2022-07-30T09:03:08;12.97;;;4.13;;
20181;SDS011;10250;50.756;6.172;2022-07-30T09:05:09;13.70;;;3.90;;
20181;SDS011;10250;50.756;6.172;2022-07-30T09:07:10;17.20;;;4.80;;
20181;SDS011;10250;50.756;6.172;2022-07-30T09:09:11;14.20;;;4.40;;
20181;SDS011;10250;50.756;6.172;2022-07-30T09:11:12;14.60;;;4.30;;
20181;SDS011;10250;50.756;6.172;2022-07-30T09:13:22;15.07;;;4.17;;
20181;SDS011;10250;50.756;6.172;2022-07-30T09:15:23;14.57;;;4.40;;
20181;SDS011;10250;50.756;6.172;2022-07-30T09:17:24;14.47;;;3.70;;
20181;SDS011;10250;50.756;6.172;2022-07-30T09:19:25;14.17;;;4.10;;
20181;SDS011;10250;50.756;6.172;2022-07-30T09:21:26;13.77;;;3.97;;
20181;SDS011;10250;50.756;6.172;2022-07-30T09:23:28;13.77;;;4.43;;
20181;SDS011;10250;50.756;6.172;2022-07-30T09:27:43;13.17;;;4.07;;
20181;SDS011;10250;50.756;6.172;2022-07-30T09:29:45;15.23;;;4.13;;
20181;SDS011;10250;50.756;6.172;2022-07-30T09:32:04;12.53;;;4.10;;
20181;SDS011;10250;50.756;6.172;2022-07-30T09:34:22;12.30;;;3.40;;
20181;SDS011;10250;50.756;6.172;2022-07-30T09:36:31;14.40;;;4.73;;
20181;SDS011;10250;50.756;6.172;2022-07-30T09:38:48;12.93;;;3.87;;
20181;SDS011;10250;50.756;6.172;2022-07-30T09:40:50;13.50;;;3.53;;
20181;SDS011;10250;50.756;6.172;2022-07-30T09:43:08;14.90;;;4.33;;
20181;SDS011;10250;50.756;6.172;2022-07-30T09:45:11;12.90;;;3.77;;
20181;SDS011;10250;50.756;6.172;2022-07-30T09:47:55;16.03;;;4.57;;
20181;SDS011;10250;50.756;6.172;2022-07-30T09:49:38;12.90;;;3.83;;
20181;SDS011;10250;50.756;6.172;2022-07-30T09:51:40;13.90;;;4.00;;
20181;SDS011;10250;50.756;6.172;2022-07-30T09:53:54;12.13;;;3.30;;
20181;SDS011;10250;50.756;6.172;2022-07-30T09:55:57;13.30;;;3.60;;
20181;SDS011;10250;50.756;6.172;2022-07-30T09:57:59;10.90;;;3.00;;
20181;SDS011;10250;50.756;6.172;2022-07-30T10:00:15;10.13;;;3.10;;
20181;SDS011;10250;50.756;6.172;2022-07-30T10:02:25;10.27;;;3.03;;
20181;SDS011;10250;50.756;6.172;2022-07-30T10:04:31;9.40;;;2.87;;
20181;SDS011;10250;50.756;6.172;2022-07-30T10:06:33;10.57;;;3.20;;
20181;SDS011;10250;50.756;6.172;2022-07-30T10:10:41;11.37;;;3.13;;
20181;SDS011;10250;50.756;6.172;2022-07-30T10:12:43;11.17;;;3.43;;
20181;SDS011;10250;50.756;6.172;2022-07-30T10:14:46;10.83;;;2.83;;
20181;SDS011;10250;50.756;6.172;2022-07-30T10:16:50;12.97;;;3.30;;
20181;SDS011;10250;50.756;6.172;2022-07-30T10:18:52;11.33;;;3.10;;
20181;SDS011;10250;50.756;6.172;2022-07-30T10:20:56;9.90;;;2.70;;
20181;SDS011;10250;50.756;6.172;2022-07-30T10:22:57;12.00;;;3.00;;
20181;SDS011;10250;50.756;6.172;2022-07-30T10:24:58;12.03;;;3.20;;
20181;SDS011;10250;50.756;6.172;2022-07-30T10:26:59;10.07;;;2.93;;
20181;SDS011;10250;50.756;6.172;2022-07-30T10:29:00;11.50;;;3.13;;
20181;SDS011;10250;50.756;6.172;2022-07-30T10:31:01;10.47;;;3.27;;
20181;SDS011;10250;50.756;6.172;2022-07-30T10:33:02;11.97;;;3.37;;
20181;SDS011;10250;50.756;6.172;2022-07-30T10:35:03;13.03;;;3.37;;
20181;SDS011;10250;50.756;6.172;2022-07-30T10:37:04;11.63;;;3.13;;
20181;SDS011;10250;50.756;6.172;2022-07-30T10:39:06;11.57;;;2.90;;
20181;SDS011;10250;50.756;6.172;2022-07-30T10:43:51;13.93;;;3.13;;
20181;SDS011;10250;50.756;6.172;2022-07-30T10:48:47;9.53;;;2.40;;
20181;SDS011;10250;50.756;6.172;2022-07-30T10:50:49;11.00;;;3.03;;
20181;SDS011;10250;50.756;6.172;2022-07-30T10:52:53;9.90;;;2.77;;
20181;SDS011;10250;50.756;6.172;2022-07-30T10:55:00;9.33;;;2.67;;
20181;SDS011;10250;50.756;6.172;2022-07-30T10:57:08;11.15;;;3.13;;
20181;SDS011;10250;50.756;6.172;2022-07-30T10:59:10;9.40;;;2.97;;
20181;SDS011;10250;50.756;6.172;2022-07-30T11:01:11;9.87;;;2.93;;
20181;SDS011;10250;50.756;6.172;2022-07-30T11:03:16;13.77;;;3.47;;
20181;SDS011;10250;50.756;6.172;2022-07-30T11:18:00;8.80;;;2.53;;
20181;SDS011;10250;50.756;6.172;2022-07-30T11:22:25;11.93;;;3.37;;
20181;SDS011;10250;50.756;6.172;2022-07-30T11:24:45;11.43;;;3.30;;
20181;SDS011;10250;50.756;6.172;2022-07-30T11:26:47;12.57;;;3.00;;
20181;SDS011;10250;50.756;6.172;2022-07-30T11:28:48;12.07;;;3.07;;
20181;SDS011;10250;50.756;6.172;2022-07-30T11:30:50;7.57;;;2.10;;
20181;SDS011;10250;50.756;6.172;2022-07-30T11:32:57;9.17;;;2.80;;
20181;SDS011;10250;50.756;6.172;2022-07-30T11:35:23;14.10;;;2.90;;
20181;SDS011;10250;50.756;6.172;2022-07-30T11:37:25;9.90;;;2.73;;
20181;SDS011;10250;50.756;6.172;2022-07-30T11:40:04;10.07;;;2.80;;
20181;SDS011;10250;50.756;6.172;2022-07-30T11:44:33;10.20;;;2.90;;
20181;SDS011;10250;50.756;6.172;2022-07-30T11:46:34;9.70;;;2.43;;
20181;SDS011;10250;50.756;6.172;2022-07-30T11:48:36;8.57;;;2.50;;
20181;SDS011;10250;50.756;6.172;2022-07-30T11:50:41;9.27;;;2.87;;
20181;SDS011;10250;50.756;6.172;2022-07-30T11:52:46;8.50;;;2.40;;
20181;SDS011;10250;50.756;6.172;2022-07-30T11:54:52;9.97;;;2.90;;
20181;SDS011;10250;50.756;6.172;2022-07-30T11:56:55;9.10;;;2.63;;
20181;SDS011;10250;50.756;6.172;2022-07-30T12:01:21;10.87;;;3.17;;
20181;SDS011;10250;50.756;6.172;2022-07-30T12:03:22;8.10;;;2.40;;
20181;SDS011;10250;50.756;6.172;2022-07-30T12:05:25;12.03;;;2.73;;
20181;SDS011;10250;50.756;6.172;2022-07-30T12:07:27;7.00;;;2.27;;
20181;SDS011;10250;50.756;6.172;2022-07-30T12:09:27;10.93;;;2.80;;
20181;SDS011;10250;50.756;6.172;2022-07-30T12:11:32;8.57;;;2.50;;
20181;SDS011;10250;50.756;6.172;2022-07-30T12:13:33;9.13;;;2.57;;
20181;SDS011;10250;50.756;6.172;2022-07-30T12:15:35;12.03;;;3.13;;
20181;SDS011;10250;50.756;6.172;2022-07-30T12:17:43;8.87;;;2.73;;
20181;SDS011;10250;50.756;6.172;2022-07-30T12:19:45;10.27;;;2.80;;
20181;SDS011;10250;50.756;6.172;2022-07-30T12:21:46;10.13;;;2.70;;
20181;SDS011;10250;50.756;6.172;2022-07-30T12:25:59;6.67;;;2.00;;
20181;SDS011;10250;50.756;6.172;2022-07-30T12:28:00;9.53;;;2.63;;
20181;SDS011;10250;50.756;6.172;2022-07-30T12:30:01;9.10;;;2.80;;
20181;SDS011;10250;50.756;6.172;2022-07-30T12:32:02;11.13;;;2.60;;
20181;SDS011;10250;50.756;6.172;2022-07-30T12:34:03;10.13;;;2.70;;
20181;SDS011;10250;50.756;6.172;2022-07-30T12:36:04;8.97;;;2.67;;
20181;SDS011;10250;50.756;6.172;2022-07-30T12:38:05;8.57;;;2.60;;
20181;SDS011;10250;50.756;6.172;2022-07-30T12:42:20;7.83;;;2.37;;
20181;SDS011;10250;50.756;6.172;2022-07-30T12:46:39;7.23;;;2.30;;
20181;SDS011;10250;50.756;6.172;2022-07-30T12:53:06;7.17;;;2.20;;
20181;SDS011;10250;50.756;6.172;2022-07-30T12:55:08;9.40;;;2.37;;